Banfora Airport


Codes: DFOB/BNR
Name: Banfora Airport
City: Banfora
Country: Burkina Faso
Elevation: 984 ft.

Photos at Banfora Airport


   Photos courtesy of SpottingLog. You can add your own sightings and photos by signing up for a free trial today.



No photos found.

Weather at Banfora Airport


Time (UTC)DescriptionTempratureWindCloud coverageVisibilityPressureHumidity
23-May-2024 21:00Light Rain27°C13 mph, NW93%10000m1009hPa73%
24-May-2024 00:00Overcast Clouds26°C7 mph, SW97%10000m1010hPa71%
24-May-2024 03:00Overcast Clouds25°C7 mph, S95%10000m1010hPa77%
24-May-2024 06:00Overcast Clouds25°C7 mph, SW93%10000m1011hPa79%
24-May-2024 09:00Broken Clouds30°C7 mph, W74%10000m1012hPa54%
24-May-2024 12:00Broken Clouds35°C7 mph, SW76%10000m1011hPa38%
24-May-2024 15:00Overcast Clouds36°C7 mph, S100%10000m1008hPa35%
24-May-2024 18:00Overcast Clouds34°C4 mph, S95%10000m1008hPa40%
24-May-2024 21:00Scattered Clouds30°C4 mph, S41%10000m1010hPa49%
25-May-2024 00:00Scattered Clouds29°C4 mph, SW42%10000m1011hPa55%
25-May-2024 03:00Overcast Clouds28°C7 mph, S93%10000m1010hPa62%
25-May-2024 06:00Broken Clouds26°C7 mph, SW73%10000m1012hPa72%
25-May-2024 09:00Broken Clouds29°C9 mph, SW77%10000m1013hPa62%
25-May-2024 12:00Broken Clouds35°C9 mph, SW61%10000m1011hPa40%
25-May-2024 15:00Overcast Clouds39°C4 mph, SW87%10000m1008hPa30%
25-May-2024 18:00Light Rain35°C4 mph, SE91%10000m1007hPa37%
25-May-2024 21:00Light Rain29°C2 mph, SE83%10000m1010hPa56%
26-May-2024 00:00Broken Clouds28°C4 mph, SW64%10000m1012hPa62%
26-May-2024 03:00Broken Clouds27°C7 mph, S84%10000m1011hPa69%
26-May-2024 06:00Broken Clouds26°C7 mph, SW60%10000m1013hPa75%
26-May-2024 09:00Overcast Clouds30°C9 mph, S99%10000m1014hPa61%
26-May-2024 12:00Broken Clouds35°C7 mph, S72%10000m1012hPa43%
26-May-2024 15:00Scattered Clouds38°C4 mph, S37%10000m1009hPa33%
26-May-2024 18:00Scattered Clouds36°C4 mph, S43%10000m1008hPa36%
26-May-2024 21:00Moderate Rain27°C4 mph, S93%10000m1012hPa71%
27-May-2024 00:00Light Rain26°C4 mph, SW91%10000m1013hPa78%
27-May-2024 03:00Overcast Clouds26°C4 mph, S100%10000m1012hPa76%
27-May-2024 06:00Light Rain25°C4 mph, SW95%10000m1013hPa82%
27-May-2024 09:00Broken Clouds29°C7 mph, SW66%10000m1014hPa65%
27-May-2024 12:00Scattered Clouds35°C7 mph, S45%10000m1012hPa42%
27-May-2024 15:00Few Clouds38°C4 mph, SE20%10000m1009hPa32%
27-May-2024 18:00Scattered Clouds36°C4 mph, SW28%10000m1008hPa36%
27-May-2024 21:00Light Rain30°C4 mph, NW48%10000m1011hPa54%
28-May-2024 00:00Light Rain29°C4 mph, SW54%10000m1012hPa61%
28-May-2024 03:00Broken Clouds27°C7 mph, SW63%10000m1011hPa68%
28-May-2024 06:00Broken Clouds26°C7 mph, SW54%10000m1012hPa75%
28-May-2024 09:00Overcast Clouds30°C7 mph, SW96%10000m1014hPa60%
28-May-2024 12:00Overcast Clouds35°C7 mph, SW96%10000m1012hPa43%
28-May-2024 15:00Overcast Clouds38°C4 mph, SW88%10000m1009hPa33%
28-May-2024 18:00Overcast Clouds36°C4 mph, SW86%10000m1008hPa37%